sensor_id;sensor_type;location;lat;lon;timestamp;P1;durP1;ratioP1;P2;durP2;ratioP2
10565;SDS011;5331;48.148;16.326;2024-03-08T00:00:13;47.67;;;28.83;;
10565;SDS011;5331;48.148;16.326;2024-03-08T00:22:01;48.97;;;28.80;;
10565;SDS011;5331;48.148;16.326;2024-03-08T00:24:27;43.60;;;26.70;;
10565;SDS011;5331;48.148;16.326;2024-03-08T00:26:55;46.60;;;27.87;;
10565;SDS011;5331;48.148;16.326;2024-03-08T00:29:22;52.03;;;29.60;;
10565;SDS011;5331;48.148;16.326;2024-03-08T00:31:48;48.07;;;29.77;;
10565;SDS011;5331;48.148;16.326;2024-03-08T00:34:15;46.43;;;28.13;;
10565;SDS011;5331;48.148;16.326;2024-03-08T00:36:41;50.00;;;31.27;;
10565;SDS011;5331;48.148;16.326;2024-03-08T00:52:20;47.97;;;29.07;;
10565;SDS011;5331;48.148;16.326;2024-03-08T00:54:46;46.07;;;28.50;;
10565;SDS011;5331;48.148;16.326;2024-03-08T00:57:12;48.57;;;29.30;;
10565;SDS011;5331;48.148;16.326;2024-03-08T00:59:38;48.40;;;29.57;;
10565;SDS011;5331;48.148;16.326;2024-03-08T01:02:05;51.43;;;31.67;;
10565;SDS011;5331;48.148;16.326;2024-03-08T01:04:31;52.63;;;32.30;;
10565;SDS011;5331;48.148;16.326;2024-03-08T01:06:58;52.77;;;32.53;;
10565;SDS011;5331;48.148;16.326;2024-03-08T01:27:01;52.77;;;31.60;;
10565;SDS011;5331;48.148;16.326;2024-03-08T01:29:27;48.90;;;29.23;;
10565;SDS011;5331;48.148;16.326;2024-03-08T01:31:54;50.93;;;30.47;;
10565;SDS011;5331;48.148;16.326;2024-03-08T01:34:21;52.23;;;30.53;;
10565;SDS011;5331;48.148;16.326;2024-03-08T01:36:47;52.40;;;32.50;;
10565;SDS011;5331;48.148;16.326;2024-03-08T01:39:14;51.70;;;32.83;;
10565;SDS011;5331;48.148;16.326;2024-03-08T01:41:40;55.10;;;32.73;;
10565;SDS011;5331;48.148;16.326;2024-03-08T02:01:34;52.57;;;30.63;;
10565;SDS011;5331;48.148;16.326;2024-03-08T02:04:00;51.47;;;30.60;;
10565;SDS011;5331;48.148;16.326;2024-03-08T02:06:26;52.50;;;30.27;;
10565;SDS011;5331;48.148;16.326;2024-03-08T02:08:53;53.43;;;31.30;;
10565;SDS011;5331;48.148;16.326;2024-03-08T02:11:19;55.30;;;31.13;;
10565;SDS011;5331;48.148;16.326;2024-03-08T02:13:46;52.17;;;31.63;;
10565;SDS011;5331;48.148;16.326;2024-03-08T02:16:12;53.37;;;31.87;;
10565;SDS011;5331;48.148;16.326;2024-03-08T02:34:14;51.93;;;31.03;;
10565;SDS011;5331;48.148;16.326;2024-03-08T02:36:40;50.40;;;29.67;;
10565;SDS011;5331;48.148;16.326;2024-03-08T02:39:07;54.97;;;30.43;;
10565;SDS011;5331;48.148;16.326;2024-03-08T02:41:33;48.00;;;30.27;;
10565;SDS011;5331;48.148;16.326;2024-03-08T02:43:59;53.23;;;31.50;;
10565;SDS011;5331;48.148;16.326;2024-03-08T02:46:25;55.93;;;34.60;;
10565;SDS011;5331;48.148;16.326;2024-03-08T02:48:51;54.77;;;32.80;;
10565;SDS011;5331;48.148;16.326;2024-03-08T02:51:18;52.90;;;32.70;;
10565;SDS011;5331;48.148;16.326;2024-03-08T02:53:45;55.30;;;33.67;;
10565;SDS011;5331;48.148;16.326;2024-03-08T03:11:52;53.67;;;31.40;;
10565;SDS011;5331;48.148;16.326;2024-03-08T03:14:18;49.40;;;28.87;;
10565;SDS011;5331;48.148;16.326;2024-03-08T03:16:44;51.73;;;31.30;;
10565;SDS011;5331;48.148;16.326;2024-03-08T03:19:11;53.67;;;31.50;;
10565;SDS011;5331;48.148;16.326;2024-03-08T03:21:37;56.63;;;32.70;;
10565;SDS011;5331;48.148;16.326;2024-03-08T03:24:04;53.47;;;31.73;;
10565;SDS011;5331;48.148;16.326;2024-03-08T03:26:35;54.10;;;33.87;;
10565;SDS011;5331;48.148;16.326;2024-03-08T03:29:04;55.73;;;32.83;;
10565;SDS011;5331;48.148;16.326;2024-03-08T03:46:57;53.30;;;31.50;;
10565;SDS011;5331;48.148;16.326;2024-03-08T03:49:23;50.90;;;29.93;;
10565;SDS011;5331;48.148;16.326;2024-03-08T03:51:49;53.57;;;31.43;;
10565;SDS011;5331;48.148;16.326;2024-03-08T03:54:15;51.30;;;31.43;;
10565;SDS011;5331;48.148;16.326;2024-03-08T03:56:42;52.40;;;31.97;;
10565;SDS011;5331;48.148;16.326;2024-03-08T03:59:08;54.30;;;32.03;;
10565;SDS011;5331;48.148;16.326;2024-03-08T04:01:34;54.50;;;32.60;;
10565;SDS011;5331;48.148;16.326;2024-03-08T04:17:01;52.00;;;29.47;;
10565;SDS011;5331;48.148;16.326;2024-03-08T04:19:28;50.30;;;28.93;;
10565;SDS011;5331;48.148;16.326;2024-03-08T04:21:54;50.87;;;30.30;;
10565;SDS011;5331;48.148;16.326;2024-03-08T04:24:20;54.37;;;32.00;;
10565;SDS011;5331;48.148;16.326;2024-03-08T04:26:46;56.37;;;32.53;;
10565;SDS011;5331;48.148;16.326;2024-03-08T04:29:13;53.13;;;32.83;;
10565;SDS011;5331;48.148;16.326;2024-03-08T04:31:39;53.00;;;33.37;;
10565;SDS011;5331;48.148;16.326;2024-03-08T04:47:09;53.77;;;31.20;;
10565;SDS011;5331;48.148;16.326;2024-03-08T04:49:36;55.50;;;31.20;;
10565;SDS011;5331;48.148;16.326;2024-03-08T04:52:02;48.50;;;29.47;;
10565;SDS011;5331;48.148;16.326;2024-03-08T04:54:28;54.70;;;31.17;;
10565;SDS011;5331;48.148;16.326;2024-03-08T04:56:54;49.27;;;30.10;;
10565;SDS011;5331;48.148;16.326;2024-03-08T04:59:21;54.17;;;31.50;;
10565;SDS011;5331;48.148;16.326;2024-03-08T05:01:47;55.03;;;33.60;;
10565;SDS011;5331;48.148;16.326;2024-03-08T05:04:14;56.23;;;33.00;;
10565;SDS011;5331;48.148;16.326;2024-03-08T05:19:59;50.70;;;31.10;;
10565;SDS011;5331;48.148;16.326;2024-03-08T05:22:25;48.00;;;28.93;;
10565;SDS011;5331;48.148;16.326;2024-03-08T05:24:52;48.03;;;29.90;;
10565;SDS011;5331;48.148;16.326;2024-03-08T05:27:18;51.83;;;29.93;;
10565;SDS011;5331;48.148;16.326;2024-03-08T05:29:44;54.20;;;32.27;;
10565;SDS011;5331;48.148;16.326;2024-03-08T05:32:11;52.50;;;31.50;;
10565;SDS011;5331;48.148;16.326;2024-03-08T05:34:37;56.87;;;33.60;;
10565;SDS011;5331;48.148;16.326;2024-03-08T05:52:31;49.67;;;30.70;;
10565;SDS011;5331;48.148;16.326;2024-03-08T05:54:57;52.70;;;29.53;;
10565;SDS011;5331;48.148;16.326;2024-03-08T05:57:23;52.03;;;30.20;;
10565;SDS011;5331;48.148;16.326;2024-03-08T05:59:49;54.53;;;31.93;;
10565;SDS011;5331;48.148;16.326;2024-03-08T06:02:15;50.03;;;29.97;;
10565;SDS011;5331;48.148;16.326;2024-03-08T06:04:44;56.07;;;32.03;;
10565;SDS011;5331;48.148;16.326;2024-03-08T06:07:10;53.87;;;31.83;;
10565;SDS011;5331;48.148;16.326;2024-03-08T06:27:25;55.10;;;33.67;;
10565;SDS011;5331;48.148;16.326;2024-03-08T06:29:51;57.13;;;34.73;;
10565;SDS011;5331;48.148;16.326;2024-03-08T06:32:18;59.93;;;34.30;;
10565;SDS011;5331;48.148;16.326;2024-03-08T06:34:44;56.13;;;34.23;;
10565;SDS011;5331;48.148;16.326;2024-03-08T06:37:10;60.80;;;35.73;;
10565;SDS011;5331;48.148;16.326;2024-03-08T06:39:36;60.30;;;35.80;;
10565;SDS011;5331;48.148;16.326;2024-03-08T06:42:17;60.87;;;37.33;;
10565;SDS011;5331;48.148;16.326;2024-03-08T06:44:44;60.90;;;35.53;;
10565;SDS011;5331;48.148;16.326;2024-03-08T07:02:53;54.27;;;30.60;;
10565;SDS011;5331;48.148;16.326;2024-03-08T07:05:19;51.77;;;29.97;;
10565;SDS011;5331;48.148;16.326;2024-03-08T07:07:46;53.73;;;30.10;;
10565;SDS011;5331;48.148;16.326;2024-03-08T07:10:13;52.87;;;30.13;;
10565;SDS011;5331;48.148;16.326;2024-03-08T07:12:40;61.73;;;33.23;;
10565;SDS011;5331;48.148;16.326;2024-03-08T07:15:07;53.20;;;32.87;;
10565;SDS011;5331;48.148;16.326;2024-03-08T07:17:38;58.27;;;34.73;;
10565;SDS011;5331;48.148;16.326;2024-03-08T07:38:13;53.97;;;30.03;;
10565;SDS011;5331;48.148;16.326;2024-03-08T07:40:40;55.13;;;31.40;;
10565;SDS011;5331;48.148;16.326;2024-03-08T07:43:09;59.87;;;32.63;;
10565;SDS011;5331;48.148;16.326;2024-03-08T07:45:36;60.70;;;33.40;;
10565;SDS011;5331;48.148;16.326;2024-03-08T07:48:02;53.77;;;31.43;;
10565;SDS011;5331;48.148;16.326;2024-03-08T07:50:29;52.93;;;32.03;;
10565;SDS011;5331;48.148;16.326;2024-03-08T07:52:55;57.70;;;34.57;;
10565;SDS011;5331;48.148;16.326;2024-03-08T07:55:22;69.23;;;36.27;;
10565;SDS011;5331;48.148;16.326;2024-03-08T08:15:43;66.97;;;34.50;;
10565;SDS011;5331;48.148;16.326;2024-03-08T08:18:09;63.20;;;35.10;;
10565;SDS011;5331;48.148;16.326;2024-03-08T08:20:35;65.23;;;36.17;;
10565;SDS011;5331;48.148;16.326;2024-03-08T08:23:02;61.70;;;35.93;;
10565;SDS011;5331;48.148;16.326;2024-03-08T08:25:29;73.67;;;37.80;;
10565;SDS011;5331;48.148;16.326;2024-03-08T08:27:55;70.30;;;38.33;;
10565;SDS011;5331;48.148;16.326;2024-03-08T08:30:21;66.47;;;38.30;;
10565;SDS011;5331;48.148;16.326;2024-03-08T08:32:48;70.03;;;37.63;;
10565;SDS011;5331;48.148;16.326;2024-03-08T08:50:53;78.40;;;42.83;;
10565;SDS011;5331;48.148;16.326;2024-03-08T08:53:20;71.40;;;38.70;;
10565;SDS011;5331;48.148;16.326;2024-03-08T08:55:47;75.63;;;39.83;;
10565;SDS011;5331;48.148;16.326;2024-03-08T08:58:13;77.37;;;40.27;;
10565;SDS011;5331;48.148;16.326;2024-03-08T09:00:40;78.83;;;39.33;;
10565;SDS011;5331;48.148;16.326;2024-03-08T09:03:07;77.40;;;36.80;;
10565;SDS011;5331;48.148;16.326;2024-03-08T09:05:33;80.63;;;39.07;;
10565;SDS011;5331;48.148;16.326;2024-03-08T09:21:03;78.67;;;37.13;;
10565;SDS011;5331;48.148;16.326;2024-03-08T09:23:30;84.10;;;37.87;;
10565;SDS011;5331;48.148;16.326;2024-03-08T09:25:56;85.80;;;37.83;;
10565;SDS011;5331;48.148;16.326;2024-03-08T09:28:22;86.77;;;38.43;;
10565;SDS011;5331;48.148;16.326;2024-03-08T09:30:49;81.63;;;37.33;;
10565;SDS011;5331;48.148;16.326;2024-03-08T09:33:15;77.97;;;37.60;;
10565;SDS011;5331;48.148;16.326;2024-03-08T09:35:44;88.50;;;40.70;;
10565;SDS011;5331;48.148;16.326;2024-03-08T09:56:01;85.40;;;38.20;;
10565;SDS011;5331;48.148;16.326;2024-03-08T09:58:29;93.13;;;39.57;;
10565;SDS011;5331;48.148;16.326;2024-03-08T10:01:21;89.03;;;38.77;;
10565;SDS011;5331;48.148;16.326;2024-03-08T10:03:48;88.63;;;38.53;;
10565;SDS011;5331;48.148;16.326;2024-03-08T10:06:15;99.40;;;41.07;;
10565;SDS011;5331;48.148;16.326;2024-03-08T10:08:41;91.17;;;40.37;;
10565;SDS011;5331;48.148;16.326;2024-03-08T10:11:08;93.10;;;39.37;;
10565;SDS011;5331;48.148;16.326;2024-03-08T10:29:05;62.23;;;29.17;;
10565;SDS011;5331;48.148;16.326;2024-03-08T10:31:32;57.13;;;28.00;;
10565;SDS011;5331;48.148;16.326;2024-03-08T10:33:59;49.40;;;24.17;;
10565;SDS011;5331;48.148;16.326;2024-03-08T10:36:26;45.10;;;22.73;;
10565;SDS011;5331;48.148;16.326;2024-03-08T10:38:53;37.67;;;19.70;;
10565;SDS011;5331;48.148;16.326;2024-03-08T10:41:22;31.20;;;17.57;;
10565;SDS011;5331;48.148;16.326;2024-03-08T10:43:52;31.03;;;18.40;;
10565;SDS011;5331;48.148;16.326;2024-03-08T10:46:36;32.60;;;18.77;;
10565;SDS011;5331;48.148;16.326;2024-03-08T11:06:43;24.50;;;15.43;;
10565;SDS011;5331;48.148;16.326;2024-03-08T11:09:27;28.70;;;17.47;;
10565;SDS011;5331;48.148;16.326;2024-03-08T11:14:45;29.67;;;18.30;;
10565;SDS011;5331;48.148;16.326;2024-03-08T11:17:14;23.47;;;14.67;;
10565;SDS011;5331;48.148;16.326;2024-03-08T11:19:45;23.30;;;15.00;;
10565;SDS011;5331;48.148;16.326;2024-03-08T11:36:34;20.83;;;13.80;;
10565;SDS011;5331;48.148;16.326;2024-03-08T11:39:02;21.27;;;13.37;;
10565;SDS011;5331;48.148;16.326;2024-03-08T11:41:35;21.37;;;13.30;;
10565;SDS011;5331;48.148;16.326;2024-03-08T11:44:03;19.60;;;12.13;;
10565;SDS011;5331;48.148;16.326;2024-03-08T11:46:35;18.50;;;11.87;;
10565;SDS011;5331;48.148;16.326;2024-03-08T11:49:02;16.53;;;11.50;;
10565;SDS011;5331;48.148;16.326;2024-03-08T11:51:28;16.53;;;11.17;;
10565;SDS011;5331;48.148;16.326;2024-03-08T12:11:42;21.17;;;14.40;;
10565;SDS011;5331;48.148;16.326;2024-03-08T12:14:10;23.97;;;14.63;;
10565;SDS011;5331;48.148;16.326;2024-03-08T12:16:37;24.80;;;14.53;;
10565;SDS011;5331;48.148;16.326;2024-03-08T12:19:03;21.77;;;14.67;;
10565;SDS011;5331;48.148;16.326;2024-03-08T12:21:31;24.90;;;15.13;;
10565;SDS011;5331;48.148;16.326;2024-03-08T12:24:02;22.60;;;14.97;;
10565;SDS011;5331;48.148;16.326;2024-03-08T12:26:29;23.90;;;14.60;;
10565;SDS011;5331;48.148;16.326;2024-03-08T12:47:01;21.55;;;14.20;;
10565;SDS011;5331;48.148;16.326;2024-03-08T12:49:29;19.20;;;12.80;;
10565;SDS011;5331;48.148;16.326;2024-03-08T12:51:56;18.27;;;12.63;;
10565;SDS011;5331;48.148;16.326;2024-03-08T12:54:24;20.27;;;13.17;;
10565;SDS011;5331;48.148;16.326;2024-03-08T12:56:52;22.43;;;14.43;;
10565;SDS011;5331;48.148;16.326;2024-03-08T12:59:20;18.27;;;11.77;;
10565;SDS011;5331;48.148;16.326;2024-03-08T13:01:48;19.00;;;12.23;;
10565;SDS011;5331;48.148;16.326;2024-03-08T13:19:46;17.25;;;11.50;;
10565;SDS011;5331;48.148;16.326;2024-03-08T13:22:17;16.40;;;10.87;;
10565;SDS011;5331;48.148;16.326;2024-03-08T13:24:57;15.13;;;10.00;;
10565;SDS011;5331;48.148;16.326;2024-03-08T13:27:26;16.17;;;10.87;;
10565;SDS011;5331;48.148;16.326;2024-03-08T13:30:09;15.17;;;10.00;;
10565;SDS011;5331;48.148;16.326;2024-03-08T13:32:41;15.13;;;10.77;;
10565;SDS011;5331;48.148;16.326;2024-03-08T13:35:15;16.13;;;10.60;;
10565;SDS011;5331;48.148;16.326;2024-03-08T13:53:07;12.88;;;9.18;;
10565;SDS011;5331;48.148;16.326;2024-03-08T13:55:35;13.10;;;8.55;;
10565;SDS011;5331;48.148;16.326;2024-03-08T13:58:01;18.43;;;12.33;;
10565;SDS011;5331;48.148;16.326;2024-03-08T14:00:28;15.93;;;10.40;;
10565;SDS011;5331;48.148;16.326;2024-03-08T14:02:58;14.83;;;10.63;;
10565;SDS011;5331;48.148;16.326;2024-03-08T14:05:24;18.73;;;12.07;;
10565;SDS011;5331;48.148;16.326;2024-03-08T14:07:52;17.73;;;11.53;;
10565;SDS011;5331;48.148;16.326;2024-03-08T14:10:20;19.80;;;12.10;;
10565;SDS011;5331;48.148;16.326;2024-03-08T14:28:14;20.38;;;13.32;;
10565;SDS011;5331;48.148;16.326;2024-03-08T14:30:40;18.43;;;12.90;;
10565;SDS011;5331;48.148;16.326;2024-03-08T14:33:08;19.43;;;12.17;;
10565;SDS011;5331;48.148;16.326;2024-03-08T14:35:34;18.53;;;12.23;;
10565;SDS011;5331;48.148;16.326;2024-03-08T14:38:01;17.37;;;12.03;;
10565;SDS011;5331;48.148;16.326;2024-03-08T14:40:28;16.73;;;11.43;;
10565;SDS011;5331;48.148;16.326;2024-03-08T14:42:55;16.37;;;11.87;;
10565;SDS011;5331;48.148;16.326;2024-03-08T14:58:23;17.20;;;11.82;;
10565;SDS011;5331;48.148;16.326;2024-03-08T15:00:52;14.93;;;11.68;;
10565;SDS011;5331;48.148;16.326;2024-03-08T15:03:21;17.60;;;11.27;;
10565;SDS011;5331;48.148;16.326;2024-03-08T15:05:51;17.50;;;11.33;;
10565;SDS011;5331;48.148;16.326;2024-03-08T15:08:18;17.77;;;11.70;;
10565;SDS011;5331;48.148;16.326;2024-03-08T15:10:45;19.73;;;12.50;;
10565;SDS011;5331;48.148;16.326;2024-03-08T15:13:12;16.37;;;11.40;;
10565;SDS011;5331;48.148;16.326;2024-03-08T15:31:22;15.80;;;11.97;;
10565;SDS011;5331;48.148;16.326;2024-03-08T15:33:50;18.57;;;12.10;;
10565;SDS011;5331;48.148;16.326;2024-03-08T15:36:26;16.37;;;11.33;;
10565;SDS011;5331;48.148;16.326;2024-03-08T15:39:18;17.30;;;12.23;;
10565;SDS011;5331;48.148;16.326;2024-03-08T15:42:18;18.40;;;12.93;;
10565;SDS011;5331;48.148;16.326;2024-03-08T15:45:06;16.43;;;11.47;;
10565;SDS011;5331;48.148;16.326;2024-03-08T15:47:38;18.03;;;11.67;;
10565;SDS011;5331;48.148;16.326;2024-03-08T16:05:43;16.67;;;11.43;;
10565;SDS011;5331;48.148;16.326;2024-03-08T16:08:17;15.80;;;10.83;;
10565;SDS011;5331;48.148;16.326;2024-03-08T16:11:16;15.83;;;10.83;;
10565;SDS011;5331;48.148;16.326;2024-03-08T16:13:46;16.30;;;11.23;;
10565;SDS011;5331;48.148;16.326;2024-03-08T16:16:15;15.53;;;10.97;;
10565;SDS011;5331;48.148;16.326;2024-03-08T16:18:42;18.00;;;11.90;;
10565;SDS011;5331;48.148;16.326;2024-03-08T16:21:12;17.97;;;12.43;;
10565;SDS011;5331;48.148;16.326;2024-03-08T16:23:48;16.50;;;12.07;;
10565;SDS011;5331;48.148;16.326;2024-03-08T16:41:46;17.97;;;12.03;;
10565;SDS011;5331;48.148;16.326;2024-03-08T16:44:23;16.50;;;11.47;;
10565;SDS011;5331;48.148;16.326;2024-03-08T16:46:52;16.47;;;11.07;;
10565;SDS011;5331;48.148;16.326;2024-03-08T16:49:23;17.40;;;11.33;;
10565;SDS011;5331;48.148;16.326;2024-03-08T16:51:55;17.13;;;12.37;;
10565;SDS011;5331;48.148;16.326;2024-03-08T16:54:23;19.40;;;12.73;;
10565;SDS011;5331;48.148;16.326;2024-03-08T16:56:51;18.43;;;11.73;;
10565;SDS011;5331;48.148;16.326;2024-03-08T17:15:02;14.70;;;9.63;;
10565;SDS011;5331;48.148;16.326;2024-03-08T17:17:52;14.37;;;10.13;;
10565;SDS011;5331;48.148;16.326;2024-03-08T17:20:30;13.77;;;9.73;;
10565;SDS011;5331;48.148;16.326;2024-03-08T17:23:09;14.97;;;10.20;;
10565;SDS011;5331;48.148;16.326;2024-03-08T17:25:38;14.93;;;10.73;;
10565;SDS011;5331;48.148;16.326;2024-03-08T17:28:37;15.13;;;10.13;;
10565;SDS011;5331;48.148;16.326;2024-03-08T17:31:10;13.80;;;10.13;;
10565;SDS011;5331;48.148;16.326;2024-03-08T17:49:08;14.13;;;10.53;;
10565;SDS011;5331;48.148;16.326;2024-03-08T17:51:36;17.13;;;10.90;;
10565;SDS011;5331;48.148;16.326;2024-03-08T17:54:03;15.83;;;11.17;;
10565;SDS011;5331;48.148;16.326;2024-03-08T17:56:36;16.17;;;11.33;;
10565;SDS011;5331;48.148;16.326;2024-03-08T17:59:03;14.47;;;10.57;;
10565;SDS011;5331;48.148;16.326;2024-03-08T18:01:32;14.87;;;11.07;;
10565;SDS011;5331;48.148;16.326;2024-03-08T18:04:01;14.97;;;11.60;;
10565;SDS011;5331;48.148;16.326;2024-03-08T18:06:31;15.33;;;11.27;;
10565;SDS011;5331;48.148;16.326;2024-03-08T18:24:26;14.40;;;10.97;;
10565;SDS011;5331;48.148;16.326;2024-03-08T18:26:52;15.13;;;11.00;;
10565;SDS011;5331;48.148;16.326;2024-03-08T18:29:19;17.53;;;11.00;;
10565;SDS011;5331;48.148;16.326;2024-03-08T18:31:47;16.63;;;11.87;;
10565;SDS011;5331;48.148;16.326;2024-03-08T18:34:13;19.23;;;13.13;;
10565;SDS011;5331;48.148;16.326;2024-03-08T18:36:39;21.17;;;14.10;;
10565;SDS011;5331;48.148;16.326;2024-03-08T18:39:06;18.10;;;13.20;;
10565;SDS011;5331;48.148;16.326;2024-03-08T18:57:05;16.43;;;11.30;;
10565;SDS011;5331;48.148;16.326;2024-03-08T18:59:33;17.37;;;11.73;;
10565;SDS011;5331;48.148;16.326;2024-03-08T19:01:59;14.13;;;11.33;;
10565;SDS011;5331;48.148;16.326;2024-03-08T19:04:27;19.10;;;13.00;;
10565;SDS011;5331;48.148;16.326;2024-03-08T19:06:54;16.47;;;12.07;;
10565;SDS011;5331;48.148;16.326;2024-03-08T19:09:21;15.23;;;12.50;;
10565;SDS011;5331;48.148;16.326;2024-03-08T19:11:47;17.23;;;13.10;;
10565;SDS011;5331;48.148;16.326;2024-03-08T19:29:42;18.00;;;12.50;;
10565;SDS011;5331;48.148;16.326;2024-03-08T19:32:08;18.07;;;11.93;;
10565;SDS011;5331;48.148;16.326;2024-03-08T19:34:36;15.97;;;12.03;;
10565;SDS011;5331;48.148;16.326;2024-03-08T19:37:04;16.73;;;12.13;;
10565;SDS011;5331;48.148;16.326;2024-03-08T19:39:33;21.90;;;16.33;;
10565;SDS011;5331;48.148;16.326;2024-03-08T19:42:00;18.57;;;12.80;;
10565;SDS011;5331;48.148;16.326;2024-03-08T19:44:30;19.87;;;14.37;;
10565;SDS011;5331;48.148;16.326;2024-03-08T20:05:17;20.77;;;14.67;;
10565;SDS011;5331;48.148;16.326;2024-03-08T20:07:46;21.53;;;14.87;;
10565;SDS011;5331;48.148;16.326;2024-03-08T20:10:14;23.30;;;15.73;;
10565;SDS011;5331;48.148;16.326;2024-03-08T20:12:42;21.93;;;15.13;;
10565;SDS011;5331;48.148;16.326;2024-03-08T20:15:09;22.90;;;15.77;;
10565;SDS011;5331;48.148;16.326;2024-03-08T20:17:36;21.17;;;15.00;;
10565;SDS011;5331;48.148;16.326;2024-03-08T20:20:04;22.63;;;15.20;;
10565;SDS011;5331;48.148;16.326;2024-03-08T20:22:33;22.67;;;15.87;;
10565;SDS011;5331;48.148;16.326;2024-03-08T20:42:46;24.70;;;15.20;;
10565;SDS011;5331;48.148;16.326;2024-03-08T20:45:13;20.63;;;14.53;;
10565;SDS011;5331;48.148;16.326;2024-03-08T20:47:40;22.33;;;15.30;;
10565;SDS011;5331;48.148;16.326;2024-03-08T20:50:07;24.57;;;16.10;;
10565;SDS011;5331;48.148;16.326;2024-03-08T20:52:35;25.00;;;16.07;;
10565;SDS011;5331;48.148;16.326;2024-03-08T20:55:01;24.77;;;15.63;;
10565;SDS011;5331;48.148;16.326;2024-03-08T20:57:33;24.73;;;16.07;;
10565;SDS011;5331;48.148;16.326;2024-03-08T21:17:46;26.33;;;16.93;;
10565;SDS011;5331;48.148;16.326;2024-03-08T21:20:12;23.87;;;16.83;;
10565;SDS011;5331;48.148;16.326;2024-03-08T21:22:41;22.20;;;16.13;;
10565;SDS011;5331;48.148;16.326;2024-03-08T21:25:07;21.07;;;15.23;;
10565;SDS011;5331;48.148;16.326;2024-03-08T21:27:35;23.93;;;16.23;;
10565;SDS011;5331;48.148;16.326;2024-03-08T21:30:01;25.30;;;16.03;;
10565;SDS011;5331;48.148;16.326;2024-03-08T21:32:28;23.83;;;16.50;;
10565;SDS011;5331;48.148;16.326;2024-03-08T21:50:22;21.77;;;14.43;;
10565;SDS011;5331;48.148;16.326;2024-03-08T21:52:49;22.57;;;15.00;;
10565;SDS011;5331;48.148;16.326;2024-03-08T21:55:15;21.90;;;14.23;;
10565;SDS011;5331;48.148;16.326;2024-03-08T21:57:41;24.63;;;15.17;;
10565;SDS011;5331;48.148;16.326;2024-03-08T22:00:08;23.70;;;15.63;;
10565;SDS011;5331;48.148;16.326;2024-03-08T22:02:36;23.37;;;15.93;;
10565;SDS011;5331;48.148;16.326;2024-03-08T22:05:03;25.50;;;16.53;;
10565;SDS011;5331;48.148;16.326;2024-03-08T22:20:50;23.23;;;16.07;;
10565;SDS011;5331;48.148;16.326;2024-03-08T22:23:16;24.77;;;16.80;;
10565;SDS011;5331;48.148;16.326;2024-03-08T22:25:48;23.87;;;16.77;;
10565;SDS011;5331;48.148;16.326;2024-03-08T22:28:15;25.33;;;17.50;;
10565;SDS011;5331;48.148;16.326;2024-03-08T22:30:42;24.83;;;16.77;;
10565;SDS011;5331;48.148;16.326;2024-03-08T22:33:11;24.27;;;17.80;;
10565;SDS011;5331;48.148;16.326;2024-03-08T22:35:38;25.93;;;18.03;;
10565;SDS011;5331;48.148;16.326;2024-03-08T22:52:02;23.67;;;15.87;;
10565;SDS011;5331;48.148;16.326;2024-03-08T22:54:28;23.40;;;15.80;;
10565;SDS011;5331;48.148;16.326;2024-03-08T22:56:55;24.40;;;16.37;;
10565;SDS011;5331;48.148;16.326;2024-03-08T22:59:22;23.00;;;15.57;;
10565;SDS011;5331;48.148;16.326;2024-03-08T23:01:49;23.90;;;16.40;;
10565;SDS011;5331;48.148;16.326;2024-03-08T23:04:18;25.03;;;16.63;;
10565;SDS011;5331;48.148;16.326;2024-03-08T23:06:44;23.70;;;16.47;;
10565;SDS011;5331;48.148;16.326;2024-03-08T23:22:12;23.53;;;16.10;;
10565;SDS011;5331;48.148;16.326;2024-03-08T23:24:39;24.07;;;16.17;;
10565;SDS011;5331;48.148;16.326;2024-03-08T23:27:05;21.67;;;15.67;;
10565;SDS011;5331;48.148;16.326;2024-03-08T23:29:31;23.87;;;16.23;;
10565;SDS011;5331;48.148;16.326;2024-03-08T23:31:58;25.10;;;16.80;;
10565;SDS011;5331;48.148;16.326;2024-03-08T23:34:25;24.50;;;16.93;;
10565;SDS011;5331;48.148;16.326;2024-03-08T23:36:51;23.50;;;16.73;;
10565;SDS011;5331;48.148;16.326;2024-03-08T23:52:31;21.37;;;15.47;;
10565;SDS011;5331;48.148;16.326;2024-03-08T23:55:00;22.73;;;15.47;;
10565;SDS011;5331;48.148;16.326;2024-03-08T23:57:26;25.67;;;16.13;;
10565;SDS011;5331;48.148;16.326;2024-03-08T23:59:52;23.67;;;16.10;;
